sensor_id;sensor_type;location;lat;lon;timestamp;P1;durP1;ratioP1;P2;durP2;ratioP2
65558;SDS011;52203;51.998;5.140;2023-12-28T00:00:45;2.72;;;1.40;;
65558;SDS011;52203;51.998;5.140;2023-12-28T00:03:11;3.25;;;1.63;;
65558;SDS011;52203;51.998;5.140;2023-12-28T00:05:36;2.97;;;1.58;;
65558;SDS011;52203;51.998;5.140;2023-12-28T00:08:02;2.33;;;1.40;;
65558;SDS011;52203;51.998;5.140;2023-12-28T00:10:27;2.63;;;1.70;;
65558;SDS011;52203;51.998;5.140;2023-12-28T00:12:56;2.92;;;1.40;;
65558;SDS011;52203;51.998;5.140;2023-12-28T00:15:22;2.30;;;1.40;;
65558;SDS011;52203;51.998;5.140;2023-12-28T00:17:47;2.83;;;1.52;;
65558;SDS011;52203;51.998;5.140;2023-12-28T00:20:13;3.67;;;1.70;;
65558;SDS011;52203;51.998;5.140;2023-12-28T00:22:38;2.78;;;1.60;;
65558;SDS011;52203;51.998;5.140;2023-12-28T00:25:04;2.75;;;1.50;;
65558;SDS011;52203;51.998;5.140;2023-12-28T00:27:30;2.67;;;1.58;;
65558;SDS011;52203;51.998;5.140;2023-12-28T00:29:56;3.45;;;1.50;;
65558;SDS011;52203;51.998;5.140;2023-12-28T00:32:22;3.25;;;1.52;;
65558;SDS011;52203;51.998;5.140;2023-12-28T00:34:49;2.55;;;1.52;;
65558;SDS011;52203;51.998;5.140;2023-12-28T00:37:15;2.50;;;1.38;;
65558;SDS011;52203;51.998;5.140;2023-12-28T00:39:40;3.30;;;1.50;;
65558;SDS011;52203;51.998;5.140;2023-12-28T00:42:06;3.28;;;1.60;;
65558;SDS011;52203;51.998;5.140;2023-12-28T00:44:31;2.53;;;1.52;;
65558;SDS011;52203;51.998;5.140;2023-12-28T00:46:57;3.58;;;1.58;;
65558;SDS011;52203;51.998;5.140;2023-12-28T00:49:22;2.50;;;1.48;;
65558;SDS011;52203;51.998;5.140;2023-12-28T00:51:48;3.17;;;1.60;;
65558;SDS011;52203;51.998;5.140;2023-12-28T00:54:13;3.17;;;1.60;;
65558;SDS011;52203;51.998;5.140;2023-12-28T00:56:39;3.33;;;1.50;;
65558;SDS011;52203;51.998;5.140;2023-12-28T00:59:06;2.72;;;1.60;;
65558;SDS011;52203;51.998;5.140;2023-12-28T01:01:32;2.78;;;1.77;;
65558;SDS011;52203;51.998;5.140;2023-12-28T01:03:57;3.22;;;1.60;;
65558;SDS011;52203;51.998;5.140;2023-12-28T01:06:25;2.60;;;1.42;;
65558;SDS011;52203;51.998;5.140;2023-12-28T01:08:56;2.95;;;1.48;;
65558;SDS011;52203;51.998;5.140;2023-12-28T01:11:21;4.78;;;1.83;;
65558;SDS011;52203;51.998;5.140;2023-12-28T01:13:47;3.75;;;1.63;;
65558;SDS011;52203;51.998;5.140;2023-12-28T01:16:13;2.65;;;1.33;;
65558;SDS011;52203;51.998;5.140;2023-12-28T01:18:41;3.33;;;1.40;;
65558;SDS011;52203;51.998;5.140;2023-12-28T01:21:07;2.00;;;1.20;;
65558;SDS011;52203;51.998;5.140;2023-12-28T01:23:35;3.72;;;1.58;;
65558;SDS011;52203;51.998;5.140;2023-12-28T01:26:01;2.58;;;1.60;;
65558;SDS011;52203;51.998;5.140;2023-12-28T01:28:27;3.30;;;1.67;;
65558;SDS011;52203;51.998;5.140;2023-12-28T01:30:53;3.03;;;1.73;;
65558;SDS011;52203;51.998;5.140;2023-12-28T01:33:18;2.50;;;1.33;;
65558;SDS011;52203;51.998;5.140;2023-12-28T01:35:44;3.38;;;1.67;;
65558;SDS011;52203;51.998;5.140;2023-12-28T01:38:09;2.83;;;1.45;;
65558;SDS011;52203;51.998;5.140;2023-12-28T01:40:37;2.97;;;1.55;;
65558;SDS011;52203;51.998;5.140;2023-12-28T01:43:03;2.88;;;1.50;;
65558;SDS011;52203;51.998;5.140;2023-12-28T01:45:28;2.22;;;1.20;;
65558;SDS011;52203;51.998;5.140;2023-12-28T01:47:54;2.53;;;1.30;;
65558;SDS011;52203;51.998;5.140;2023-12-28T01:50:24;2.13;;;1.35;;
65558;SDS011;52203;51.998;5.140;2023-12-28T01:52:51;3.55;;;1.65;;
65558;SDS011;52203;51.998;5.140;2023-12-28T01:55:17;2.85;;;1.60;;
65558;SDS011;52203;51.998;5.140;2023-12-28T01:57:43;2.33;;;1.52;;
65558;SDS011;52203;51.998;5.140;2023-12-28T02:00:09;3.53;;;1.60;;
65558;SDS011;52203;51.998;5.140;2023-12-28T02:02:36;4.20;;;1.63;;
65558;SDS011;52203;51.998;5.140;2023-12-28T02:05:01;2.20;;;1.45;;
65558;SDS011;52203;51.998;5.140;2023-12-28T02:07:27;3.08;;;1.20;;
65558;SDS011;52203;51.998;5.140;2023-12-28T02:09:54;3.30;;;1.50;;
65558;SDS011;52203;51.998;5.140;2023-12-28T02:12:19;3.15;;;1.50;;
65558;SDS011;52203;51.998;5.140;2023-12-28T02:14:45;4.20;;;1.60;;
65558;SDS011;52203;51.998;5.140;2023-12-28T02:17:28;3.63;;;1.45;;
65558;SDS011;52203;51.998;5.140;2023-12-28T02:20:00;2.88;;;1.50;;
65558;SDS011;52203;51.998;5.140;2023-12-28T02:22:30;2.85;;;1.50;;
65558;SDS011;52203;51.998;5.140;2023-12-28T02:24:58;2.97;;;1.35;;
65558;SDS011;52203;51.998;5.140;2023-12-28T02:27:24;2.35;;;1.40;;
65558;SDS011;52203;51.998;5.140;2023-12-28T02:29:52;2.55;;;1.50;;
65558;SDS011;52203;51.998;5.140;2023-12-28T02:32:20;2.78;;;1.35;;
65558;SDS011;52203;51.998;5.140;2023-12-28T02:34:49;2.92;;;1.60;;
65558;SDS011;52203;51.998;5.140;2023-12-28T02:37:20;2.85;;;1.50;;
65558;SDS011;52203;51.998;5.140;2023-12-28T02:39:46;3.17;;;1.60;;
65558;SDS011;52203;51.998;5.140;2023-12-28T02:42:14;4.45;;;1.80;;
65558;SDS011;52203;51.998;5.140;2023-12-28T02:44:39;2.30;;;1.25;;
65558;SDS011;52203;51.998;5.140;2023-12-28T02:47:05;2.55;;;1.40;;
65558;SDS011;52203;51.998;5.140;2023-12-28T02:49:30;2.30;;;1.40;;
65558;SDS011;52203;51.998;5.140;2023-12-28T02:51:56;2.45;;;1.60;;
65558;SDS011;52203;51.998;5.140;2023-12-28T02:54:21;3.03;;;1.60;;
65558;SDS011;52203;51.998;5.140;2023-12-28T02:56:46;2.78;;;1.42;;
65558;SDS011;52203;51.998;5.140;2023-12-28T02:59:12;2.28;;;1.30;;
65558;SDS011;52203;51.998;5.140;2023-12-28T03:01:37;2.90;;;1.40;;
65558;SDS011;52203;51.998;5.140;2023-12-28T03:04:03;2.72;;;1.30;;
65558;SDS011;52203;51.998;5.140;2023-12-28T03:06:28;3.08;;;1.48;;
65558;SDS011;52203;51.998;5.140;2023-12-28T03:08:54;3.28;;;1.40;;
65558;SDS011;52203;51.998;5.140;2023-12-28T03:11:19;2.53;;;1.35;;
65558;SDS011;52203;51.998;5.140;2023-12-28T03:13:45;2.75;;;1.30;;
65558;SDS011;52203;51.998;5.140;2023-12-28T03:16:13;2.53;;;1.33;;
65558;SDS011;52203;51.998;5.140;2023-12-28T03:18:38;4.85;;;1.40;;
65558;SDS011;52203;51.998;5.140;2023-12-28T03:21:04;2.78;;;1.42;;
65558;SDS011;52203;51.998;5.140;2023-12-28T03:23:30;3.55;;;1.70;;
65558;SDS011;52203;51.998;5.140;2023-12-28T03:25:55;2.83;;;1.52;;
65558;SDS011;52203;51.998;5.140;2023-12-28T03:28:21;2.63;;;1.40;;
65558;SDS011;52203;51.998;5.140;2023-12-28T03:30:46;2.70;;;1.40;;
65558;SDS011;52203;51.998;5.140;2023-12-28T03:33:12;2.35;;;1.48;;
65558;SDS011;52203;51.998;5.140;2023-12-28T03:35:37;2.30;;;1.60;;
65558;SDS011;52203;51.998;5.140;2023-12-28T03:38:06;2.92;;;1.30;;
65558;SDS011;52203;51.998;5.140;2023-12-28T03:40:32;4.00;;;1.40;;
65558;SDS011;52203;51.998;5.140;2023-12-28T03:42:57;2.40;;;1.40;;
65558;SDS011;52203;51.998;5.140;2023-12-28T03:45:22;2.75;;;1.30;;
65558;SDS011;52203;51.998;5.140;2023-12-28T03:47:48;4.10;;;1.60;;
65558;SDS011;52203;51.998;5.140;2023-12-28T03:50:13;2.95;;;1.40;;
65558;SDS011;52203;51.998;5.140;2023-12-28T03:52:39;3.00;;;1.45;;
65558;SDS011;52203;51.998;5.140;2023-12-28T03:55:04;2.58;;;1.30;;
65558;SDS011;52203;51.998;5.140;2023-12-28T03:57:30;2.83;;;1.40;;
65558;SDS011;52203;51.998;5.140;2023-12-28T03:59:56;2.88;;;1.40;;
65558;SDS011;52203;51.998;5.140;2023-12-28T04:02:21;4.05;;;1.55;;
65558;SDS011;52203;51.998;5.140;2023-12-28T04:04:49;2.40;;;1.45;;
65558;SDS011;52203;51.998;5.140;2023-12-28T04:07:15;4.43;;;1.45;;
65558;SDS011;52203;51.998;5.140;2023-12-28T04:09:41;2.08;;;1.33;;
65558;SDS011;52203;51.998;5.140;2023-12-28T04:12:06;2.95;;;1.17;;
65558;SDS011;52203;51.998;5.140;2023-12-28T04:14:32;3.40;;;1.45;;
65558;SDS011;52203;51.998;5.140;2023-12-28T04:16:58;3.63;;;1.30;;
65558;SDS011;52203;51.998;5.140;2023-12-28T04:19:24;2.83;;;1.30;;
65558;SDS011;52203;51.998;5.140;2023-12-28T04:21:49;3.58;;;1.30;;
65558;SDS011;52203;51.998;5.140;2023-12-28T04:24:15;3.75;;;1.33;;
65558;SDS011;52203;51.998;5.140;2023-12-28T04:26:40;2.50;;;1.15;;
65558;SDS011;52203;51.998;5.140;2023-12-28T04:29:06;4.10;;;1.40;;
65558;SDS011;52203;51.998;5.140;2023-12-28T04:31:32;2.90;;;1.30;;
65558;SDS011;52203;51.998;5.140;2023-12-28T04:33:57;3.45;;;1.40;;
65558;SDS011;52203;51.998;5.140;2023-12-28T04:36:23;4.30;;;1.50;;
65558;SDS011;52203;51.998;5.140;2023-12-28T04:38:48;3.25;;;1.20;;
65558;SDS011;52203;51.998;5.140;2023-12-28T04:41:14;2.30;;;1.10;;
65558;SDS011;52203;51.998;5.140;2023-12-28T04:43:39;2.90;;;1.60;;
65558;SDS011;52203;51.998;5.140;2023-12-28T04:46:05;4.88;;;1.55;;
65558;SDS011;52203;51.998;5.140;2023-12-28T04:48:31;3.00;;;1.30;;
65558;SDS011;52203;51.998;5.140;2023-12-28T04:50:57;2.85;;;1.20;;
65558;SDS011;52203;51.998;5.140;2023-12-28T04:53:22;2.55;;;1.50;;
65558;SDS011;52203;51.998;5.140;2023-12-28T04:55:48;2.63;;;1.20;;
65558;SDS011;52203;51.998;5.140;2023-12-28T04:58:13;2.80;;;1.33;;
65558;SDS011;52203;51.998;5.140;2023-12-28T05:00:39;3.08;;;1.35;;
65558;SDS011;52203;51.998;5.140;2023-12-28T05:03:04;4.63;;;1.27;;
65558;SDS011;52203;51.998;5.140;2023-12-28T05:05:33;2.42;;;1.02;;
65558;SDS011;52203;51.998;5.140;2023-12-28T05:07:59;6.43;;;1.60;;
65558;SDS011;52203;51.998;5.140;2023-12-28T05:10:24;4.07;;;1.48;;
65558;SDS011;52203;51.998;5.140;2023-12-28T05:12:50;5.10;;;1.30;;
65558;SDS011;52203;51.998;5.140;2023-12-28T05:15:18;4.18;;;1.30;;
65558;SDS011;52203;51.998;5.140;2023-12-28T05:17:44;3.17;;;1.35;;
65558;SDS011;52203;51.998;5.140;2023-12-28T05:20:10;2.63;;;1.30;;
65558;SDS011;52203;51.998;5.140;2023-12-28T05:22:39;5.82;;;1.50;;
65558;SDS011;52203;51.998;5.140;2023-12-28T05:25:04;3.80;;;1.20;;
65558;SDS011;52203;51.998;5.140;2023-12-28T05:27:30;4.22;;;1.27;;
65558;SDS011;52203;51.998;5.140;2023-12-28T05:29:55;3.53;;;1.38;;
65558;SDS011;52203;51.998;5.140;2023-12-28T05:32:21;3.92;;;1.20;;
65558;SDS011;52203;51.998;5.140;2023-12-28T05:34:46;4.72;;;1.75;;
65558;SDS011;52203;51.998;5.140;2023-12-28T05:37:14;4.07;;;1.30;;
65558;SDS011;52203;51.998;5.140;2023-12-28T05:39:40;4.40;;;1.30;;
65558;SDS011;52203;51.998;5.140;2023-12-28T05:42:08;2.92;;;1.33;;
65558;SDS011;52203;51.998;5.140;2023-12-28T05:44:33;5.38;;;1.40;;
65558;SDS011;52203;51.998;5.140;2023-12-28T05:46:58;4.10;;;1.48;;
65558;SDS011;52203;51.998;5.140;2023-12-28T05:49:24;4.28;;;1.30;;
65558;SDS011;52203;51.998;5.140;2023-12-28T05:51:50;3.28;;;1.60;;
65558;SDS011;52203;51.998;5.140;2023-12-28T05:54:15;3.17;;;1.23;;
65558;SDS011;52203;51.998;5.140;2023-12-28T05:56:41;4.80;;;1.42;;
65558;SDS011;52203;51.998;5.140;2023-12-28T05:59:06;4.63;;;1.30;;
65558;SDS011;52203;51.998;5.140;2023-12-28T06:01:32;4.03;;;1.38;;
65558;SDS011;52203;51.998;5.140;2023-12-28T06:03:57;6.20;;;1.48;;
65558;SDS011;52203;51.998;5.140;2023-12-28T06:06:23;3.55;;;1.35;;
65558;SDS011;52203;51.998;5.140;2023-12-28T06:08:49;4.88;;;1.10;;
65558;SDS011;52203;51.998;5.140;2023-12-28T06:11:14;4.70;;;1.45;;
65558;SDS011;52203;51.998;5.140;2023-12-28T06:13:42;4.13;;;1.27;;
65558;SDS011;52203;51.998;5.140;2023-12-28T06:16:08;3.47;;;1.60;;
65558;SDS011;52203;51.998;5.140;2023-12-28T06:18:34;2.88;;;1.35;;
65558;SDS011;52203;51.998;5.140;2023-12-28T06:20:59;3.78;;;1.20;;
65558;SDS011;52203;51.998;5.140;2023-12-28T06:23:25;3.85;;;1.23;;
65558;SDS011;52203;51.998;5.140;2023-12-28T06:25:51;4.78;;;1.30;;
65558;SDS011;52203;51.998;5.140;2023-12-28T06:28:17;4.22;;;1.38;;
65558;SDS011;52203;51.998;5.140;2023-12-28T06:30:42;4.32;;;1.38;;
65558;SDS011;52203;51.998;5.140;2023-12-28T06:33:08;4.22;;;1.50;;
65558;SDS011;52203;51.998;5.140;2023-12-28T06:35:34;5.85;;;1.48;;
65558;SDS011;52203;51.998;5.140;2023-12-28T06:37:59;2.53;;;1.23;;
65558;SDS011;52203;51.998;5.140;2023-12-28T06:40:24;3.15;;;1.40;;
65558;SDS011;52203;51.998;5.140;2023-12-28T06:42:50;3.92;;;1.33;;
65558;SDS011;52203;51.998;5.140;2023-12-28T06:45:15;2.80;;;1.20;;
65558;SDS011;52203;51.998;5.140;2023-12-28T06:47:41;3.47;;;1.20;;
65558;SDS011;52203;51.998;5.140;2023-12-28T06:50:09;2.90;;;1.27;;
65558;SDS011;52203;51.998;5.140;2023-12-28T06:52:34;5.57;;;1.40;;
65558;SDS011;52203;51.998;5.140;2023-12-28T06:55:00;5.15;;;1.20;;
65558;SDS011;52203;51.998;5.140;2023-12-28T06:57:25;4.60;;;1.30;;
65558;SDS011;52203;51.998;5.140;2023-12-28T06:59:51;3.75;;;1.27;;
65558;SDS011;52203;51.998;5.140;2023-12-28T07:02:16;5.18;;;1.40;;
65558;SDS011;52203;51.998;5.140;2023-12-28T07:04:42;4.18;;;1.33;;
65558;SDS011;52203;51.998;5.140;2023-12-28T07:07:07;7.50;;;1.40;;
65558;SDS011;52203;51.998;5.140;2023-12-28T07:09:33;4.78;;;1.33;;
65558;SDS011;52203;51.998;5.140;2023-12-28T07:11:58;6.07;;;1.30;;
65558;SDS011;52203;51.998;5.140;2023-12-28T07:14:24;4.75;;;1.65;;
65558;SDS011;52203;51.998;5.140;2023-12-28T07:16:50;4.53;;;1.42;;
65558;SDS011;52203;51.998;5.140;2023-12-28T07:19:15;5.57;;;1.65;;
65558;SDS011;52203;51.998;5.140;2023-12-28T07:21:46;5.50;;;1.40;;
65558;SDS011;52203;51.998;5.140;2023-12-28T07:24:12;4.35;;;1.58;;
65558;SDS011;52203;51.998;5.140;2023-12-28T07:26:39;4.63;;;1.60;;
65558;SDS011;52203;51.998;5.140;2023-12-28T07:29:05;5.72;;;1.40;;
65558;SDS011;52203;51.998;5.140;2023-12-28T07:31:30;5.72;;;1.60;;
65558;SDS011;52203;51.998;5.140;2023-12-28T07:33:57;3.17;;;1.30;;
65558;SDS011;52203;51.998;5.140;2023-12-28T07:36:22;5.68;;;1.08;;
65558;SDS011;52203;51.998;5.140;2023-12-28T07:38:49;5.30;;;1.40;;
65558;SDS011;52203;51.998;5.140;2023-12-28T07:41:15;3.55;;;1.15;;
65558;SDS011;52203;51.998;5.140;2023-12-28T07:43:41;3.42;;;0.98;;
65558;SDS011;52203;51.998;5.140;2023-12-28T07:46:07;4.43;;;1.35;;
65558;SDS011;52203;51.998;5.140;2023-12-28T07:48:32;4.38;;;1.20;;
65558;SDS011;52203;51.998;5.140;2023-12-28T07:50:58;3.65;;;1.35;;
65558;SDS011;52203;51.998;5.140;2023-12-28T07:53:27;4.93;;;1.23;;
65558;SDS011;52203;51.998;5.140;2023-12-28T07:55:53;3.90;;;1.10;;
65558;SDS011;52203;51.998;5.140;2023-12-28T07:58:19;4.05;;;1.40;;
65558;SDS011;52203;51.998;5.140;2023-12-28T08:00:45;5.78;;;1.50;;
65558;SDS011;52203;51.998;5.140;2023-12-28T08:03:10;5.03;;;1.42;;
65558;SDS011;52203;51.998;5.140;2023-12-28T08:05:37;4.78;;;1.48;;
65558;SDS011;52203;51.998;5.140;2023-12-28T08:08:03;4.13;;;1.10;;
65558;SDS011;52203;51.998;5.140;2023-12-28T08:10:29;5.30;;;1.40;;
65558;SDS011;52203;51.998;5.140;2023-12-28T08:12:54;3.97;;;1.30;;
65558;SDS011;52203;51.998;5.140;2023-12-28T08:15:21;4.97;;;1.30;;
65558;SDS011;52203;51.998;5.140;2023-12-28T08:17:47;6.13;;;1.42;;
65558;SDS011;52203;51.998;5.140;2023-12-28T08:20:13;4.82;;;1.40;;
65558;SDS011;52203;51.998;5.140;2023-12-28T08:22:39;4.22;;;1.50;;
65558;SDS011;52203;51.998;5.140;2023-12-28T08:25:05;7.22;;;1.60;;
65558;SDS011;52203;51.998;5.140;2023-12-28T08:27:31;5.10;;;1.35;;
65558;SDS011;52203;51.998;5.140;2023-12-28T08:29:58;3.60;;;1.20;;
65558;SDS011;52203;51.998;5.140;2023-12-28T08:32:24;4.78;;;1.25;;
65558;SDS011;52203;51.998;5.140;2023-12-28T08:34:49;5.05;;;1.25;;
65558;SDS011;52203;51.998;5.140;2023-12-28T08:37:15;4.28;;;1.50;;
65558;SDS011;52203;51.998;5.140;2023-12-28T08:39:41;5.45;;;1.17;;
65558;SDS011;52203;51.998;5.140;2023-12-28T08:42:07;4.80;;;1.30;;
65558;SDS011;52203;51.998;5.140;2023-12-28T08:44:33;3.35;;;1.10;;
65558;SDS011;52203;51.998;5.140;2023-12-28T08:47:00;3.85;;;1.15;;
65558;SDS011;52203;51.998;5.140;2023-12-28T08:49:27;5.88;;;1.23;;
65558;SDS011;52203;51.998;5.140;2023-12-28T08:51:54;5.90;;;1.40;;
65558;SDS011;52203;51.998;5.140;2023-12-28T08:54:19;6.00;;;1.45;;
65558;SDS011;52203;51.998;5.140;2023-12-28T08:56:45;4.65;;;1.33;;
65558;SDS011;52203;51.998;5.140;2023-12-28T08:59:11;7.10;;;1.55;;
65558;SDS011;52203;51.998;5.140;2023-12-28T09:01:37;5.07;;;1.45;;
65558;SDS011;52203;51.998;5.140;2023-12-28T09:04:02;4.20;;;1.33;;
65558;SDS011;52203;51.998;5.140;2023-12-28T09:06:30;5.38;;;1.20;;
65558;SDS011;52203;51.998;5.140;2023-12-28T09:08:55;6.90;;;1.30;;
65558;SDS011;52203;51.998;5.140;2023-12-28T09:11:21;4.32;;;1.25;;
65558;SDS011;52203;51.998;5.140;2023-12-28T09:13:48;5.95;;;1.50;;
65558;SDS011;52203;51.998;5.140;2023-12-28T09:16:24;3.42;;;1.13;;
65558;SDS011;52203;51.998;5.140;2023-12-28T09:18:50;4.72;;;1.23;;
65558;SDS011;52203;51.998;5.140;2023-12-28T09:21:16;8.30;;;1.70;;
65558;SDS011;52203;51.998;5.140;2023-12-28T09:23:45;7.70;;;1.90;;
65558;SDS011;52203;51.998;5.140;2023-12-28T09:26:11;5.78;;;1.45;;
65558;SDS011;52203;51.998;5.140;2023-12-28T09:28:38;7.25;;;1.30;;
65558;SDS011;52203;51.998;5.140;2023-12-28T09:31:05;6.57;;;1.67;;
65558;SDS011;52203;51.998;5.140;2023-12-28T09:33:32;7.60;;;1.85;;
65558;SDS011;52203;51.998;5.140;2023-12-28T09:35:58;8.20;;;1.77;;
65558;SDS011;52203;51.998;5.140;2023-12-28T09:38:24;7.82;;;1.63;;
65558;SDS011;52203;51.998;5.140;2023-12-28T09:40:52;6.90;;;1.92;;
65558;SDS011;52203;51.998;5.140;2023-12-28T09:43:26;5.45;;;2.00;;
65558;SDS011;52203;51.998;5.140;2023-12-28T09:46:05;11.13;;;1.60;;
65558;SDS011;52203;51.998;5.140;2023-12-28T09:48:35;7.03;;;1.58;;
65558;SDS011;52203;51.998;5.140;2023-12-28T09:51:03;10.60;;;2.10;;
65558;SDS011;52203;51.998;5.140;2023-12-28T09:53:29;5.43;;;1.27;;
65558;SDS011;52203;51.998;5.140;2023-12-28T09:55:55;6.20;;;1.67;;
65558;SDS011;52203;51.998;5.140;2023-12-28T09:58:21;8.45;;;1.55;;
65558;SDS011;52203;51.998;5.140;2023-12-28T10:00:48;5.32;;;1.30;;
65558;SDS011;52203;51.998;5.140;2023-12-28T10:03:15;6.78;;;1.45;;
65558;SDS011;52203;51.998;5.140;2023-12-28T10:05:44;6.55;;;1.45;;
65558;SDS011;52203;51.998;5.140;2023-12-28T10:08:16;5.10;;;1.40;;
65558;SDS011;52203;51.998;5.140;2023-12-28T10:10:42;4.85;;;1.45;;
65558;SDS011;52203;51.998;5.140;2023-12-28T10:13:09;4.07;;;1.52;;
65558;SDS011;52203;51.998;5.140;2023-12-28T10:15:36;6.60;;;1.38;;
65558;SDS011;52203;51.998;5.140;2023-12-28T10:18:05;6.45;;;1.30;;
65558;SDS011;52203;51.998;5.140;2023-12-28T10:20:31;4.82;;;1.27;;
65558;SDS011;52203;51.998;5.140;2023-12-28T10:23:00;4.15;;;1.42;;
65558;SDS011;52203;51.998;5.140;2023-12-28T10:25:26;7.68;;;1.45;;
65558;SDS011;52203;51.998;5.140;2023-12-28T10:27:52;5.88;;;1.55;;
65558;SDS011;52203;51.998;5.140;2023-12-28T10:30:21;7.57;;;1.50;;
65558;SDS011;52203;51.998;5.140;2023-12-28T10:32:47;7.35;;;1.45;;
65558;SDS011;52203;51.998;5.140;2023-12-28T10:35:12;4.72;;;1.30;;
65558;SDS011;52203;51.998;5.140;2023-12-28T10:37:41;4.55;;;1.25;;
65558;SDS011;52203;51.998;5.140;2023-12-28T10:40:07;4.60;;;1.25;;
65558;SDS011;52203;51.998;5.140;2023-12-28T10:42:46;4.93;;;1.15;;
65558;SDS011;52203;51.998;5.140;2023-12-28T10:45:16;7.88;;;1.50;;
65558;SDS011;52203;51.998;5.140;2023-12-28T10:47:54;11.48;;;1.88;;
65558;SDS011;52203;51.998;5.140;2023-12-28T10:50:34;19.85;;;3.03;;
65558;SDS011;52203;51.998;5.140;2023-12-28T11:01:54;19.45;;;2.05;;
65558;SDS011;52203;51.998;5.140;2023-12-28T11:07:06;15.70;;;2.30;;
65558;SDS011;52203;51.998;5.140;2023-12-28T11:09:34;9.55;;;2.10;;
65558;SDS011;52203;51.998;5.140;2023-12-28T11:12:02;10.63;;;1.85;;
65558;SDS011;52203;51.998;5.140;2023-12-28T11:14:35;11.25;;;2.08;;
65558;SDS011;52203;51.998;5.140;2023-12-28T11:17:03;6.30;;;1.80;;
65558;SDS011;52203;51.998;5.140;2023-12-28T11:19:29;11.90;;;1.75;;
65558;SDS011;52203;51.998;5.140;2023-12-28T11:21:56;10.75;;;1.98;;
65558;SDS011;52203;51.998;5.140;2023-12-28T11:24:26;8.13;;;1.65;;
65558;SDS011;52203;51.998;5.140;2023-12-28T11:26:53;11.13;;;1.67;;
65558;SDS011;52203;51.998;5.140;2023-12-28T11:29:22;8.45;;;1.75;;
65558;SDS011;52203;51.998;5.140;2023-12-28T11:31:52;8.32;;;1.70;;
65558;SDS011;52203;51.998;5.140;2023-12-28T11:34:19;8.63;;;1.73;;
65558;SDS011;52203;51.998;5.140;2023-12-28T11:36:49;12.25;;;1.92;;
65558;SDS011;52203;51.998;5.140;2023-12-28T11:39:24;8.93;;;1.60;;
65558;SDS011;52203;51.998;5.140;2023-12-28T11:41:59;8.75;;;1.92;;
65558;SDS011;52203;51.998;5.140;2023-12-28T11:44:41;8.40;;;1.48;;
65558;SDS011;52203;51.998;5.140;2023-12-28T11:47:28;9.52;;;1.92;;
65558;SDS011;52203;51.998;5.140;2023-12-28T11:52:25;5.70;;;1.27;;
65558;SDS011;52203;51.998;5.140;2023-12-28T11:54:51;8.07;;;1.75;;
65558;SDS011;52203;51.998;5.140;2023-12-28T11:57:17;5.47;;;1.63;;
65558;SDS011;52203;51.998;5.140;2023-12-28T11:59:42;9.55;;;2.25;;
65558;SDS011;52203;51.998;5.140;2023-12-28T12:02:08;11.48;;;2.28;;
65558;SDS011;52203;51.998;5.140;2023-12-28T12:04:35;9.52;;;2.95;;
65558;SDS011;52203;51.998;5.140;2023-12-28T12:07:04;8.70;;;2.50;;
65558;SDS011;52203;51.998;5.140;2023-12-28T12:09:30;8.43;;;2.60;;
65558;SDS011;52203;51.998;5.140;2023-12-28T12:11:59;9.23;;;2.40;;
65558;SDS011;52203;51.998;5.140;2023-12-28T12:14:26;10.18;;;3.28;;
65558;SDS011;52203;51.998;5.140;2023-12-28T12:16:53;9.18;;;3.13;;
65558;SDS011;52203;51.998;5.140;2023-12-28T12:19:22;10.10;;;2.80;;
65558;SDS011;52203;51.998;5.140;2023-12-28T12:21:48;7.43;;;2.75;;
65558;SDS011;52203;51.998;5.140;2023-12-28T12:24:16;8.15;;;2.88;;
65558;SDS011;52203;51.998;5.140;2023-12-28T12:26:42;8.95;;;3.15;;
65558;SDS011;52203;51.998;5.140;2023-12-28T12:29:08;11.73;;;3.58;;
65558;SDS011;52203;51.998;5.140;2023-12-28T12:31:34;9.40;;;2.90;;
65558;SDS011;52203;51.998;5.140;2023-12-28T12:34:00;8.20;;;2.60;;
65558;SDS011;52203;51.998;5.140;2023-12-28T12:36:26;10.45;;;2.90;;
65558;SDS011;52203;51.998;5.140;2023-12-28T12:38:51;8.15;;;2.88;;
65558;SDS011;52203;51.998;5.140;2023-12-28T12:41:17;9.68;;;2.60;;
65558;SDS011;52203;51.998;5.140;2023-12-28T12:43:42;13.38;;;5.45;;
65558;SDS011;52203;51.998;5.140;2023-12-28T12:46:08;23.27;;;11.68;;
65558;SDS011;52203;51.998;5.140;2023-12-28T12:48:34;23.83;;;12.15;;
65558;SDS011;52203;51.998;5.140;2023-12-28T12:51:03;20.80;;;9.70;;
65558;SDS011;52203;51.998;5.140;2023-12-28T12:53:32;19.33;;;9.48;;
65558;SDS011;52203;51.998;5.140;2023-12-28T12:56:05;15.88;;;8.48;;
65558;SDS011;52203;51.998;5.140;2023-12-28T12:58:31;18.02;;;7.85;;
65558;SDS011;52203;51.998;5.140;2023-12-28T13:00:56;15.65;;;8.32;;
65558;SDS011;52203;51.998;5.140;2023-12-28T13:03:26;19.42;;;6.00;;
65558;SDS011;52203;51.998;5.140;2023-12-28T13:05:54;17.13;;;6.70;;
65558;SDS011;52203;51.998;5.140;2023-12-28T13:08:21;14.25;;;5.10;;
65558;SDS011;52203;51.998;5.140;2023-12-28T13:10:47;12.75;;;3.38;;
65558;SDS011;52203;51.998;5.140;2023-12-28T13:13:12;20.75;;;3.40;;
65558;SDS011;52203;51.998;5.140;2023-12-28T13:15:38;18.65;;;3.70;;
65558;SDS011;52203;51.998;5.140;2023-12-28T13:18:04;27.63;;;4.40;;
65558;SDS011;52203;51.998;5.140;2023-12-28T13:20:30;20.65;;;3.67;;
65558;SDS011;52203;51.998;5.140;2023-12-28T13:22:55;18.00;;;3.50;;
65558;SDS011;52203;51.998;5.140;2023-12-28T13:25:22;17.08;;;3.47;;
65558;SDS011;52203;51.998;5.140;2023-12-28T13:27:47;16.40;;;3.00;;
65558;SDS011;52203;51.998;5.140;2023-12-28T13:30:14;9.25;;;1.95;;
65558;SDS011;52203;51.998;5.140;2023-12-28T13:32:42;12.88;;;2.40;;
65558;SDS011;52203;51.998;5.140;2023-12-28T13:35:07;16.67;;;2.83;;
65558;SDS011;52203;51.998;5.140;2023-12-28T13:37:33;13.13;;;2.30;;
65558;SDS011;52203;51.998;5.140;2023-12-28T13:39:58;10.15;;;2.15;;
65558;SDS011;52203;51.998;5.140;2023-12-28T13:42:24;15.73;;;2.58;;
65558;SDS011;52203;51.998;5.140;2023-12-28T13:44:49;12.20;;;2.10;;
65558;SDS011;52203;51.998;5.140;2023-12-28T13:47:15;15.73;;;3.17;;
65558;SDS011;52203;51.998;5.140;2023-12-28T13:49:40;19.88;;;3.13;;
65558;SDS011;52203;51.998;5.140;2023-12-28T13:52:06;16.38;;;2.38;;
65558;SDS011;52203;51.998;5.140;2023-12-28T13:54:31;8.88;;;2.10;;
65558;SDS011;52203;51.998;5.140;2023-12-28T13:56:57;12.80;;;2.38;;
65558;SDS011;52203;51.998;5.140;2023-12-28T13:59:22;15.93;;;2.58;;
65558;SDS011;52203;51.998;5.140;2023-12-28T14:01:48;19.23;;;4.00;;
65558;SDS011;52203;51.998;5.140;2023-12-28T14:04:14;20.63;;;5.30;;
65558;SDS011;52203;51.998;5.140;2023-12-28T14:06:39;18.48;;;4.90;;
65558;SDS011;52203;51.998;5.140;2023-12-28T14:09:05;21.63;;;5.25;;
65558;SDS011;52203;51.998;5.140;2023-12-28T14:11:30;18.13;;;3.95;;
65558;SDS011;52203;51.998;5.140;2023-12-28T14:13:56;18.73;;;3.80;;
65558;SDS011;52203;51.998;5.140;2023-12-28T14:16:22;16.50;;;5.10;;
65558;SDS011;52203;51.998;5.140;2023-12-28T14:18:47;18.50;;;3.85;;
65558;SDS011;52203;51.998;5.140;2023-12-28T14:21:14;10.95;;;4.05;;
65558;SDS011;52203;51.998;5.140;2023-12-28T14:23:40;18.92;;;3.92;;
65558;SDS011;52203;51.998;5.140;2023-12-28T14:26:09;12.02;;;3.72;;
65558;SDS011;52203;51.998;5.140;2023-12-28T14:28:41;12.63;;;3.50;;
65558;SDS011;52203;51.998;5.140;2023-12-28T14:31:09;18.73;;;4.78;;
65558;SDS011;52203;51.998;5.140;2023-12-28T14:33:35;17.70;;;7.50;;
65558;SDS011;52203;51.998;5.140;2023-12-28T14:36:01;23.73;;;10.52;;
65558;SDS011;52203;51.998;5.140;2023-12-28T14:38:27;21.98;;;9.45;;
65558;SDS011;52203;51.998;5.140;2023-12-28T14:40:53;23.92;;;9.10;;
65558;SDS011;52203;51.998;5.140;2023-12-28T14:43:19;19.35;;;8.55;;
65558;SDS011;52203;51.998;5.140;2023-12-28T14:45:44;15.45;;;6.53;;
65558;SDS011;52203;51.998;5.140;2023-12-28T14:48:12;20.10;;;7.45;;
65558;SDS011;52203;51.998;5.140;2023-12-28T14:50:38;16.08;;;6.75;;
65558;SDS011;52203;51.998;5.140;2023-12-28T14:53:04;20.92;;;7.63;;
65558;SDS011;52203;51.998;5.140;2023-12-28T14:55:29;21.30;;;7.20;;